sensor_id;sensor_type;location;lat;lon;timestamp;temperature;humidity
18712;DHT22;9485;49.386;8.674;2023-07-08T00:02:54;29.80;28.80
18712;DHT22;9485;49.386;8.674;2023-07-08T00:08:17;29.80;28.70
18712;DHT22;9485;49.386;8.674;2023-07-08T00:13:41;29.80;28.70
18712;DHT22;9485;49.386;8.674;2023-07-08T00:19:09;29.80;28.70
18712;DHT22;9485;49.386;8.674;2023-07-08T00:24:30;29.80;28.50
18712;DHT22;9485;49.386;8.674;2023-07-08T00:29:51;29.70;28.60
18712;DHT22;9485;49.386;8.674;2023-07-08T00:35:13;29.70;28.50
18712;DHT22;9485;49.386;8.674;2023-07-08T00:40:34;29.70;28.40
18712;DHT22;9485;49.386;8.674;2023-07-08T00:46:03;29.70;28.50
18712;DHT22;9485;49.386;8.674;2023-07-08T00:51:38;29.70;28.30
18712;DHT22;9485;49.386;8.674;2023-07-08T00:57:01;29.70;28.40
18712;DHT22;9485;49.386;8.674;2023-07-08T01:02:26;29.70;28.40
18712;DHT22;9485;49.386;8.674;2023-07-08T01:07:53;29.70;28.80
18712;DHT22;9485;49.386;8.674;2023-07-08T01:13:17;29.70;28.30
18712;DHT22;9485;49.386;8.674;2023-07-08T01:18:40;29.70;28.40
18712;DHT22;9485;49.386;8.674;2023-07-08T01:24:07;29.60;28.40
18712;DHT22;9485;49.386;8.674;2023-07-08T01:29:30;29.60;28.30
18712;DHT22;9485;49.386;8.674;2023-07-08T01:34:51;29.60;28.40
18712;DHT22;9485;49.386;8.674;2023-07-08T01:40:27;29.50;28.30
18712;DHT22;9485;49.386;8.674;2023-07-08T01:45:51;29.50;28.30
18712;DHT22;9485;49.386;8.674;2023-07-08T01:51:13;29.40;28.30
18712;DHT22;9485;49.386;8.674;2023-07-08T01:56:37;29.40;28.40
18712;DHT22;9485;49.386;8.674;2023-07-08T02:01:59;29.30;28.40
18712;DHT22;9485;49.386;8.674;2023-07-08T02:07:21;29.30;28.40
18712;DHT22;9485;49.386;8.674;2023-07-08T02:12:44;29.30;28.40
18712;DHT22;9485;49.386;8.674;2023-07-08T02:18:05;29.30;28.40
18712;DHT22;9485;49.386;8.674;2023-07-08T02:23:26;29.20;28.60
18712;DHT22;9485;49.386;8.674;2023-07-08T02:28:53;29.10;28.50
18712;DHT22;9485;49.386;8.674;2023-07-08T02:34:14;29.00;28.70
18712;DHT22;9485;49.386;8.674;2023-07-08T02:39:34;28.90;29.00
18712;DHT22;9485;49.386;8.674;2023-07-08T02:44:56;28.60;29.20
18712;DHT22;9485;49.386;8.674;2023-07-08T02:50:17;28.40;29.50
18712;DHT22;9485;49.386;8.674;2023-07-08T02:55:39;28.10;29.50
18712;DHT22;9485;49.386;8.674;2023-07-08T03:01:04;27.90;29.70
18712;DHT22;9485;49.386;8.674;2023-07-08T03:06:26;27.60;30.00
18712;DHT22;9485;49.386;8.674;2023-07-08T03:11:48;27.30;30.10
18712;DHT22;9485;49.386;8.674;2023-07-08T03:17:10;27.10;30.40
18712;DHT22;9485;49.386;8.674;2023-07-08T03:22:31;26.90;30.60
18712;DHT22;9485;49.386;8.674;2023-07-08T03:27:52;26.80;30.90
18712;DHT22;9485;49.386;8.674;2023-07-08T03:33:17;26.50;30.90
18712;DHT22;9485;49.386;8.674;2023-07-08T03:38:38;26.40;31.30
18712;DHT22;9485;49.386;8.674;2023-07-08T03:43:59;26.20;31.40
18712;DHT22;9485;49.386;8.674;2023-07-08T03:49:23;26.10;31.60
18712;DHT22;9485;49.386;8.674;2023-07-08T03:54:45;26.00;31.80
18712;DHT22;9485;49.386;8.674;2023-07-08T04:00:07;26.00;32.00
18712;DHT22;9485;49.386;8.674;2023-07-08T04:05:36;25.90;32.20
18712;DHT22;9485;49.386;8.674;2023-07-08T04:10:57;25.80;32.60
18712;DHT22;9485;49.386;8.674;2023-07-08T04:16:20;25.80;32.70
18712;DHT22;9485;49.386;8.674;2023-07-08T04:21:45;25.70;32.60
18712;DHT22;9485;49.386;8.674;2023-07-08T04:27:07;25.70;32.80
18712;DHT22;9485;49.386;8.674;2023-07-08T04:32:30;25.60;33.00
18712;DHT22;9485;49.386;8.674;2023-07-08T04:37:52;25.60;33.00
18712;DHT22;9485;49.386;8.674;2023-07-08T04:43:15;25.70;33.20
18712;DHT22;9485;49.386;8.674;2023-07-08T04:48:35;25.60;33.40
18712;DHT22;9485;49.386;8.674;2023-07-08T04:53:57;25.60;33.50
18712;DHT22;9485;49.386;8.674;2023-07-08T04:59:22;25.60;33.60
18712;DHT22;9485;49.386;8.674;2023-07-08T05:04:44;25.70;33.60
18712;DHT22;9485;49.386;8.674;2023-07-08T05:10:07;25.70;33.80
18712;DHT22;9485;49.386;8.674;2023-07-08T05:15:31;25.80;35.10
18712;DHT22;9485;49.386;8.674;2023-07-08T05:20:53;25.90;35.00
18712;DHT22;9485;49.386;8.674;2023-07-08T05:26:17;26.00;34.30
18712;DHT22;9485;49.386;8.674;2023-07-08T05:31:39;26.30;34.60
18712;DHT22;9485;49.386;8.674;2023-07-08T05:37:00;26.50;34.50
18712;DHT22;9485;49.386;8.674;2023-07-08T05:42:25;26.90;34.20
18712;DHT22;9485;49.386;8.674;2023-07-08T05:47:47;27.20;34.10
18712;DHT22;9485;49.386;8.674;2023-07-08T05:53:09;27.70;34.40
18712;DHT22;9485;49.386;8.674;2023-07-08T05:58:32;28.10;34.40
18712;DHT22;9485;49.386;8.674;2023-07-08T06:03:54;28.40;33.50
18712;DHT22;9485;49.386;8.674;2023-07-08T06:09:17;28.80;33.10
18712;DHT22;9485;49.386;8.674;2023-07-08T06:14:39;29.00;32.80
18712;DHT22;9485;49.386;8.674;2023-07-08T06:20:00;29.20;32.40
18712;DHT22;9485;49.386;8.674;2023-07-08T06:25:22;29.20;32.20
18712;DHT22;9485;49.386;8.674;2023-07-08T06:30:44;29.20;32.20
18712;DHT22;9485;49.386;8.674;2023-07-08T06:36:06;29.20;32.00
18712;DHT22;9485;49.386;8.674;2023-07-08T06:41:29;29.10;32.60
18712;DHT22;9485;49.386;8.674;2023-07-08T06:46:52;29.10;32.20
18712;DHT22;9485;49.386;8.674;2023-07-08T06:52:14;29.10;32.60
18712;DHT22;9485;49.386;8.674;2023-07-08T06:57:36;29.00;32.80
18712;DHT22;9485;49.386;8.674;2023-07-08T07:02:59;29.10;33.10
18712;DHT22;9485;49.386;8.674;2023-07-08T07:08:20;29.20;33.30
18712;DHT22;9485;49.386;8.674;2023-07-08T07:13:42;29.20;33.40
18712;DHT22;9485;49.386;8.674;2023-07-08T07:19:05;29.50;33.60
18712;DHT22;9485;49.386;8.674;2023-07-08T07:24:26;29.80;33.80
18712;DHT22;9485;49.386;8.674;2023-07-08T07:29:49;30.30;34.00
18712;DHT22;9485;49.386;8.674;2023-07-08T07:35:14;30.70;34.10
18712;DHT22;9485;49.386;8.674;2023-07-08T07:40:36;31.20;34.50
18712;DHT22;9485;49.386;8.674;2023-07-08T07:45:57;31.90;34.90
18712;DHT22;9485;49.386;8.674;2023-07-08T07:51:20;32.90;35.50
18712;DHT22;9485;49.386;8.674;2023-07-08T07:56:41;34.10;35.10
18712;DHT22;9485;49.386;8.674;2023-07-08T08:02:04;35.40;34.40
18712;DHT22;9485;49.386;8.674;2023-07-08T08:07:27;36.40;33.40
18712;DHT22;9485;49.386;8.674;2023-07-08T08:12:49;37.20;32.60
18712;DHT22;9485;49.386;8.674;2023-07-08T08:18:12;37.90;32.00
18712;DHT22;9485;49.386;8.674;2023-07-08T08:23:36;38.40;31.30
18712;DHT22;9485;49.386;8.674;2023-07-08T08:28:56;38.90;30.70
18712;DHT22;9485;49.386;8.674;2023-07-08T08:34:18;39.20;30.50
18712;DHT22;9485;49.386;8.674;2023-07-08T08:39:41;39.50;29.90
18712;DHT22;9485;49.386;8.674;2023-07-08T08:45:04;39.60;29.50
18712;DHT22;9485;49.386;8.674;2023-07-08T08:50:31;39.60;29.50
18712;DHT22;9485;49.386;8.674;2023-07-08T08:55:59;39.70;29.50
18712;DHT22;9485;49.386;8.674;2023-07-08T09:01:26;39.70;29.50
18712;DHT22;9485;49.386;8.674;2023-07-08T09:06:48;39.90;29.50
18712;DHT22;9485;49.386;8.674;2023-07-08T09:12:16;40.00;29.50
18712;DHT22;9485;49.386;8.674;2023-07-08T09:17:41;40.10;29.30
18712;DHT22;9485;49.386;8.674;2023-07-08T09:23:09;40.00;29.20
18712;DHT22;9485;49.386;8.674;2023-07-08T09:28:41;39.70;29.10
18712;DHT22;9485;49.386;8.674;2023-07-08T09:34:07;39.50;29.30
18712;DHT22;9485;49.386;8.674;2023-07-08T09:39:31;39.30;29.20
18712;DHT22;9485;49.386;8.674;2023-07-08T09:45:00;39.10;29.50
18712;DHT22;9485;49.386;8.674;2023-07-08T09:50:26;39.00;29.60
18712;DHT22;9485;49.386;8.674;2023-07-08T09:55:49;39.10;29.80
18712;DHT22;9485;49.386;8.674;2023-07-08T10:01:16;39.30;29.60
18712;DHT22;9485;49.386;8.674;2023-07-08T10:06:44;39.60;29.50
18712;DHT22;9485;49.386;8.674;2023-07-08T10:12:12;39.70;29.40
18712;DHT22;9485;49.386;8.674;2023-07-08T10:17:40;40.00;29.30
18712;DHT22;9485;49.386;8.674;2023-07-08T10:23:13;40.10;28.80
18712;DHT22;9485;49.386;8.674;2023-07-08T10:28:47;40.20;29.00
18712;DHT22;9485;49.386;8.674;2023-07-08T10:34:25;40.30;29.60
18712;DHT22;9485;49.386;8.674;2023-07-08T10:40:16;40.50;29.00
18712;DHT22;9485;49.386;8.674;2023-07-08T10:46:05;40.80;29.10
18712;DHT22;9485;49.386;8.674;2023-07-08T10:51:46;41.00;29.10
18712;DHT22;9485;49.386;8.674;2023-07-08T10:57:34;41.20;28.70
18712;DHT22;9485;49.386;8.674;2023-07-08T11:03:47;41.40;28.70
18712;DHT22;9485;49.386;8.674;2023-07-08T11:09:26;41.60;28.20
18712;DHT22;9485;49.386;8.674;2023-07-08T11:14:56;41.80;28.10
18712;DHT22;9485;49.386;8.674;2023-07-08T11:20:35;41.90;28.10
18712;DHT22;9485;49.386;8.674;2023-07-08T11:26:16;42.00;27.80
18712;DHT22;9485;49.386;8.674;2023-07-08T11:31:46;41.90;27.30
18712;DHT22;9485;49.386;8.674;2023-07-08T11:37:09;41.70;28.00
18712;DHT22;9485;49.386;8.674;2023-07-08T11:42:37;41.60;27.50
18712;DHT22;9485;49.386;8.674;2023-07-08T11:48:15;41.40;27.60
18712;DHT22;9485;49.386;8.674;2023-07-08T11:53:47;41.30;27.60
18712;DHT22;9485;49.386;8.674;2023-07-08T11:59:17;41.40;28.30
18712;DHT22;9485;49.386;8.674;2023-07-08T12:04:58;41.60;28.10
18712;DHT22;9485;49.386;8.674;2023-07-08T12:10:27;41.90;28.00
18712;DHT22;9485;49.386;8.674;2023-07-08T12:15:51;42.40;27.80
18712;DHT22;9485;49.386;8.674;2023-07-08T12:21:13;42.80;27.90
18712;DHT22;9485;49.386;8.674;2023-07-08T12:26:34;43.10;27.70
18712;DHT22;9485;49.386;8.674;2023-07-08T12:31:56;43.20;27.50
18712;DHT22;9485;49.386;8.674;2023-07-08T12:37:23;43.40;27.30
18712;DHT22;9485;49.386;8.674;2023-07-08T12:42:45;43.50;26.90
18712;DHT22;9485;49.386;8.674;2023-07-08T12:48:08;43.50;26.80
18712;DHT22;9485;49.386;8.674;2023-07-08T12:53:30;43.50;26.40
18712;DHT22;9485;49.386;8.674;2023-07-08T12:58:56;43.30;26.60
18712;DHT22;9485;49.386;8.674;2023-07-08T13:04:20;43.20;26.50
18712;DHT22;9485;49.386;8.674;2023-07-08T13:09:44;43.30;27.10
18712;DHT22;9485;49.386;8.674;2023-07-08T13:15:12;43.30;26.90
18712;DHT22;9485;49.386;8.674;2023-07-08T13:20:40;43.60;26.40
18712;DHT22;9485;49.386;8.674;2023-07-08T13:26:12;44.10;26.00
18712;DHT22;9485;49.386;8.674;2023-07-08T13:31:37;44.50;25.20
18712;DHT22;9485;49.386;8.674;2023-07-08T13:37:01;44.90;25.20
18712;DHT22;9485;49.386;8.674;2023-07-08T13:42:24;45.10;25.10
18712;DHT22;9485;49.386;8.674;2023-07-08T13:47:58;45.20;25.00
18712;DHT22;9485;49.386;8.674;2023-07-08T13:53:44;45.00;24.20
18712;DHT22;9485;49.386;8.674;2023-07-08T13:59:08;44.40;24.70
18712;DHT22;9485;49.386;8.674;2023-07-08T14:04:33;44.20;25.20
18712;DHT22;9485;49.386;8.674;2023-07-08T14:09:57;44.20;25.20
18712;DHT22;9485;49.386;8.674;2023-07-08T14:15:18;44.30;25.00
18712;DHT22;9485;49.386;8.674;2023-07-08T14:20:41;44.30;24.70
18712;DHT22;9485;49.386;8.674;2023-07-08T14:26:08;44.20;24.20
18712;DHT22;9485;49.386;8.674;2023-07-08T14:31:32;43.90;23.80
18712;DHT22;9485;49.386;8.674;2023-07-08T14:36:55;43.60;23.90
18712;DHT22;9485;49.386;8.674;2023-07-08T14:42:19;43.30;23.80
18712;DHT22;9485;49.386;8.674;2023-07-08T14:47:41;42.90;24.00
18712;DHT22;9485;49.386;8.674;2023-07-08T14:53:03;42.50;23.80
18712;DHT22;9485;49.386;8.674;2023-07-08T14:58:29;42.00;23.80
18712;DHT22;9485;49.386;8.674;2023-07-08T15:03:52;41.50;24.00
18712;DHT22;9485;49.386;8.674;2023-07-08T15:09:14;41.00;24.30
18712;DHT22;9485;49.386;8.674;2023-07-08T15:14:38;40.60;24.50
18712;DHT22;9485;49.386;8.674;2023-07-08T15:20:09;40.10;24.60
18712;DHT22;9485;49.386;8.674;2023-07-08T15:25:35;39.70;24.70
18712;DHT22;9485;49.386;8.674;2023-07-08T15:31:01;39.30;25.10
18712;DHT22;9485;49.386;8.674;2023-07-08T15:36:24;39.00;25.20
18712;DHT22;9485;49.386;8.674;2023-07-08T15:41:45;38.60;25.20
18712;DHT22;9485;49.386;8.674;2023-07-08T15:47:12;38.30;25.40
18712;DHT22;9485;49.386;8.674;2023-07-08T15:52:34;38.10;25.40
18712;DHT22;9485;49.386;8.674;2023-07-08T15:57:59;37.90;25.50
18712;DHT22;9485;49.386;8.674;2023-07-08T16:03:31;37.80;25.50
18712;DHT22;9485;49.386;8.674;2023-07-08T16:08:56;37.60;25.60
18712;DHT22;9485;49.386;8.674;2023-07-08T16:14:18;37.40;25.50
18712;DHT22;9485;49.386;8.674;2023-07-08T16:19:41;37.40;25.70
18712;DHT22;9485;49.386;8.674;2023-07-08T16:25:03;37.30;25.70
18712;DHT22;9485;49.386;8.674;2023-07-08T16:30:26;37.20;25.80
18712;DHT22;9485;49.386;8.674;2023-07-08T16:35:49;37.10;25.80
18712;DHT22;9485;49.386;8.674;2023-07-08T16:41:11;36.90;26.00
18712;DHT22;9485;49.386;8.674;2023-07-08T16:46:34;36.80;26.00
18712;DHT22;9485;49.386;8.674;2023-07-08T16:51:56;36.70;26.00
18712;DHT22;9485;49.386;8.674;2023-07-08T16:57:17;36.60;26.10
18712;DHT22;9485;49.386;8.674;2023-07-08T17:02:38;36.60;26.60
18712;DHT22;9485;49.386;8.674;2023-07-08T17:08:05;36.60;26.50
18712;DHT22;9485;49.386;8.674;2023-07-08T17:13:27;36.40;26.30
18712;DHT22;9485;49.386;8.674;2023-07-08T17:18:53;36.30;26.50
18712;DHT22;9485;49.386;8.674;2023-07-08T17:24:19;36.20;27.10
18712;DHT22;9485;49.386;8.674;2023-07-08T17:29:40;35.90;27.40
18712;DHT22;9485;49.386;8.674;2023-07-08T17:35:01;35.80;27.60
18712;DHT22;9485;49.386;8.674;2023-07-08T17:40:26;35.50;27.60
18712;DHT22;9485;49.386;8.674;2023-07-08T17:45:48;35.30;27.90
18712;DHT22;9485;49.386;8.674;2023-07-08T17:51:09;35.00;28.10
18712;DHT22;9485;49.386;8.674;2023-07-08T17:56:33;34.90;29.60
18712;DHT22;9485;49.386;8.674;2023-07-08T18:01:56;34.60;31.00
18712;DHT22;9485;49.386;8.674;2023-07-08T18:07:17;34.30;30.40
18712;DHT22;9485;49.386;8.674;2023-07-08T18:12:39;34.00;30.60
18712;DHT22;9485;49.386;8.674;2023-07-08T18:18:02;33.70;31.00
18712;DHT22;9485;49.386;8.674;2023-07-08T18:23:24;33.40;31.30
18712;DHT22;9485;49.386;8.674;2023-07-08T18:28:52;33.10;31.70
18712;DHT22;9485;49.386;8.674;2023-07-08T18:34:13;32.90;31.90
18712;DHT22;9485;49.386;8.674;2023-07-08T18:39:33;32.60;31.80
18712;DHT22;9485;49.386;8.674;2023-07-08T18:44:57;32.50;32.40
18712;DHT22;9485;49.386;8.674;2023-07-08T18:50:18;32.30;32.90
18712;DHT22;9485;49.386;8.674;2023-07-08T18:55:40;32.20;33.10
18712;DHT22;9485;49.386;8.674;2023-07-08T19:01:04;32.10;33.90
18712;DHT22;9485;49.386;8.674;2023-07-08T19:06:31;32.00;33.50
18712;DHT22;9485;49.386;8.674;2023-07-08T19:11:51;31.80;33.10
18712;DHT22;9485;49.386;8.674;2023-07-08T19:17:13;31.70;33.10
18712;DHT22;9485;49.386;8.674;2023-07-08T19:22:34;31.60;33.00
18712;DHT22;9485;49.386;8.674;2023-07-08T19:27:55;31.50;33.20
18712;DHT22;9485;49.386;8.674;2023-07-08T19:33:17;31.30;33.30
18712;DHT22;9485;49.386;8.674;2023-07-08T19:38:38;31.20;33.70
18712;DHT22;9485;49.386;8.674;2023-07-08T19:44:01;31.10;33.70
18712;DHT22;9485;49.386;8.674;2023-07-08T19:49:28;30.90;34.30
18712;DHT22;9485;49.386;8.674;2023-07-08T19:54:49;30.70;34.40
18712;DHT22;9485;49.386;8.674;2023-07-08T20:00:27;30.50;35.10
18712;DHT22;9485;49.386;8.674;2023-07-08T20:05:51;30.30;35.40
18712;DHT22;9485;49.386;8.674;2023-07-08T20:11:13;30.20;35.10
18712;DHT22;9485;49.386;8.674;2023-07-08T20:16:35;30.00;35.30
18712;DHT22;9485;49.386;8.674;2023-07-08T20:21:58;29.90;35.50
18712;DHT22;9485;49.386;8.674;2023-07-08T20:27:22;29.80;35.90
18712;DHT22;9485;49.386;8.674;2023-07-08T20:32:46;29.60;36.00
18712;DHT22;9485;49.386;8.674;2023-07-08T20:38:11;29.50;36.20
18712;DHT22;9485;49.386;8.674;2023-07-08T20:43:32;29.40;36.70
18712;DHT22;9485;49.386;8.674;2023-07-08T20:48:54;29.30;36.70
18712;DHT22;9485;49.386;8.674;2023-07-08T20:54:18;29.10;37.00
18712;DHT22;9485;49.386;8.674;2023-07-08T20:59:38;29.00;37.50
18712;DHT22;9485;49.386;8.674;2023-07-08T21:05:00;28.80;37.30
18712;DHT22;9485;49.386;8.674;2023-07-08T21:10:23;28.70;37.70
18712;DHT22;9485;49.386;8.674;2023-07-08T21:15:45;28.60;38.30
18712;DHT22;9485;49.386;8.674;2023-07-08T21:21:08;28.50;38.10
18712;DHT22;9485;49.386;8.674;2023-07-08T21:26:32;28.40;38.50
18712;DHT22;9485;49.386;8.674;2023-07-08T21:31:52;28.30;38.70
18712;DHT22;9485;49.386;8.674;2023-07-08T21:37:14;28.20;38.70
18712;DHT22;9485;49.386;8.674;2023-07-08T21:42:36;28.10;38.80
18712;DHT22;9485;49.386;8.674;2023-07-08T21:47:57;28.00;39.20
18712;DHT22;9485;49.386;8.674;2023-07-08T21:53:20;27.90;39.00
18712;DHT22;9485;49.386;8.674;2023-07-08T21:58:47;27.80;39.60
18712;DHT22;9485;49.386;8.674;2023-07-08T22:04:09;27.70;39.70
18712;DHT22;9485;49.386;8.674;2023-07-08T22:09:30;27.60;39.80
18712;DHT22;9485;49.386;8.674;2023-07-08T22:14:52;27.50;39.90
18712;DHT22;9485;49.386;8.674;2023-07-08T22:20:13;27.40;40.20
18712;DHT22;9485;49.386;8.674;2023-07-08T22:25:34;27.30;40.10
18712;DHT22;9485;49.386;8.674;2023-07-08T22:30:56;27.20;40.40
18712;DHT22;9485;49.386;8.674;2023-07-08T22:36:17;27.10;40.70
18712;DHT22;9485;49.386;8.674;2023-07-08T22:41:41;27.00;40.60
18712;DHT22;9485;49.386;8.674;2023-07-08T22:47:08;27.00;41.30
18712;DHT22;9485;49.386;8.674;2023-07-08T22:52:34;26.90;41.40
18712;DHT22;9485;49.386;8.674;2023-07-08T22:57:59;26.90;41.60
18712;DHT22;9485;49.386;8.674;2023-07-08T23:03:22;26.80;41.40
18712;DHT22;9485;49.386;8.674;2023-07-08T23:08:43;26.80;41.40
18712;DHT22;9485;49.386;8.674;2023-07-08T23:14:03;26.70;41.40
18712;DHT22;9485;49.386;8.674;2023-07-08T23:19:26;26.60;41.40
18712;DHT22;9485;49.386;8.674;2023-07-08T23:24:47;26.60;41.80
18712;DHT22;9485;49.386;8.674;2023-07-08T23:30:14;26.50;41.80
18712;DHT22;9485;49.386;8.674;2023-07-08T23:35:39;26.50;42.40
18712;DHT22;9485;49.386;8.674;2023-07-08T23:41:00;26.50;42.30
18712;DHT22;9485;49.386;8.674;2023-07-08T23:46:23;26.40;42.10
18712;DHT22;9485;49.386;8.674;2023-07-08T23:51:47;26.40;42.60
18712;DHT22;9485;49.386;8.674;2023-07-08T23:57:12;26.30;42.60
